sensor_id;sensor_type;location;lat;lon;timestamp;P1;durP1;ratioP1;P2;durP2;ratioP2
5704;SDS011;2877;48.238;11.160;2024-01-11T00:00:04;49.53;;;18.27;;
5704;SDS011;2877;48.238;11.160;2024-01-11T00:02:30;53.23;;;20.50;;
5704;SDS011;2877;48.238;11.160;2024-01-11T00:04:56;65.50;;;21.07;;
5704;SDS011;2877;48.238;11.160;2024-01-11T00:07:21;58.97;;;20.07;;
5704;SDS011;2877;48.238;11.160;2024-01-11T00:09:47;59.67;;;18.57;;
5704;SDS011;2877;48.238;11.160;2024-01-11T00:12:12;95.97;;;17.50;;
5704;SDS011;2877;48.238;11.160;2024-01-11T00:14:38;48.07;;;16.40;;
5704;SDS011;2877;48.238;11.160;2024-01-11T00:17:03;47.10;;;15.90;;
5704;SDS011;2877;48.238;11.160;2024-01-11T00:19:29;57.13;;;14.80;;
5704;SDS011;2877;48.238;11.160;2024-01-11T00:21:55;53.33;;;17.03;;
5704;SDS011;2877;48.238;11.160;2024-01-11T00:24:20;58.93;;;15.03;;
5704;SDS011;2877;48.238;11.160;2024-01-11T00:26:46;47.50;;;15.87;;
5704;SDS011;2877;48.238;11.160;2024-01-11T00:29:11;64.93;;;15.20;;
5704;SDS011;2877;48.238;11.160;2024-01-11T00:31:37;33.07;;;13.67;;
5704;SDS011;2877;48.238;11.160;2024-01-11T00:34:03;57.13;;;15.70;;
5704;SDS011;2877;48.238;11.160;2024-01-11T00:36:29;121.93;;;16.47;;
5704;SDS011;2877;48.238;11.160;2024-01-11T00:38:54;72.80;;;16.80;;
5704;SDS011;2877;48.238;11.160;2024-01-11T00:41:20;47.67;;;17.00;;
5704;SDS011;2877;48.238;11.160;2024-01-11T00:43:46;58.70;;;15.27;;
5704;SDS011;2877;48.238;11.160;2024-01-11T00:46:11;57.67;;;17.57;;
5704;SDS011;2877;48.238;11.160;2024-01-11T00:48:37;59.13;;;16.47;;
5704;SDS011;2877;48.238;11.160;2024-01-11T00:51:04;54.70;;;16.40;;
5704;SDS011;2877;48.238;11.160;2024-01-11T00:53:30;52.33;;;17.80;;
5704;SDS011;2877;48.238;11.160;2024-01-11T00:55:59;49.43;;;17.57;;
5704;SDS011;2877;48.238;11.160;2024-01-11T00:58:25;62.17;;;16.43;;
5704;SDS011;2877;48.238;11.160;2024-01-11T01:00:51;50.40;;;17.90;;
5704;SDS011;2877;48.238;11.160;2024-01-11T01:03:18;74.60;;;19.60;;
5704;SDS011;2877;48.238;11.160;2024-01-11T01:05:44;97.93;;;18.13;;
5704;SDS011;2877;48.238;11.160;2024-01-11T01:08:11;88.20;;;18.53;;
5704;SDS011;2877;48.238;11.160;2024-01-11T01:10:36;149.67;;;18.37;;
5704;SDS011;2877;48.238;11.160;2024-01-11T01:13:02;61.83;;;19.67;;
5704;SDS011;2877;48.238;11.160;2024-01-11T01:15:27;68.17;;;20.03;;
5704;SDS011;2877;48.238;11.160;2024-01-11T01:17:53;59.93;;;19.80;;
5704;SDS011;2877;48.238;11.160;2024-01-11T01:20:19;60.83;;;19.00;;
5704;SDS011;2877;48.238;11.160;2024-01-11T01:22:44;64.43;;;18.73;;
5704;SDS011;2877;48.238;11.160;2024-01-11T01:25:09;75.73;;;19.03;;
5704;SDS011;2877;48.238;11.160;2024-01-11T01:27:35;74.80;;;18.63;;
5704;SDS011;2877;48.238;11.160;2024-01-11T01:30:00;79.07;;;20.37;;
5704;SDS011;2877;48.238;11.160;2024-01-11T01:32:26;57.20;;;20.80;;
5704;SDS011;2877;48.238;11.160;2024-01-11T01:34:52;65.70;;;20.13;;
5704;SDS011;2877;48.238;11.160;2024-01-11T01:37:17;57.53;;;19.00;;
5704;SDS011;2877;48.238;11.160;2024-01-11T01:39:43;57.63;;;18.17;;
5704;SDS011;2877;48.238;11.160;2024-01-11T01:42:08;51.40;;;18.80;;
5704;SDS011;2877;48.238;11.160;2024-01-11T01:44:34;54.10;;;19.07;;
5704;SDS011;2877;48.238;11.160;2024-01-11T01:47:00;77.23;;;19.53;;
5704;SDS011;2877;48.238;11.160;2024-01-11T01:49:27;48.63;;;18.53;;
5704;SDS011;2877;48.238;11.160;2024-01-11T01:51:52;74.43;;;17.90;;
5704;SDS011;2877;48.238;11.160;2024-01-11T01:54:19;72.97;;;18.50;;
5704;SDS011;2877;48.238;11.160;2024-01-11T01:56:47;69.77;;;18.20;;
5704;SDS011;2877;48.238;11.160;2024-01-11T01:59:13;44.50;;;16.50;;
5704;SDS011;2877;48.238;11.160;2024-01-11T02:01:40;45.17;;;16.63;;
5704;SDS011;2877;48.238;11.160;2024-01-11T02:04:06;65.23;;;18.40;;
5704;SDS011;2877;48.238;11.160;2024-01-11T02:06:32;55.03;;;16.77;;
5704;SDS011;2877;48.238;11.160;2024-01-11T02:08:59;43.80;;;16.30;;
5704;SDS011;2877;48.238;11.160;2024-01-11T02:11:28;47.57;;;16.40;;
5704;SDS011;2877;48.238;11.160;2024-01-11T02:13:55;70.20;;;18.70;;
5704;SDS011;2877;48.238;11.160;2024-01-11T02:16:20;89.17;;;17.23;;
5704;SDS011;2877;48.238;11.160;2024-01-11T02:18:46;54.00;;;17.03;;
5704;SDS011;2877;48.238;11.160;2024-01-11T02:21:13;52.40;;;16.77;;
5704;SDS011;2877;48.238;11.160;2024-01-11T02:23:44;62.03;;;17.30;;
5704;SDS011;2877;48.238;11.160;2024-01-11T02:26:16;54.87;;;18.87;;
5704;SDS011;2877;48.238;11.160;2024-01-11T02:28:45;66.13;;;18.67;;
5704;SDS011;2877;48.238;11.160;2024-01-11T02:31:11;44.20;;;18.43;;
5704;SDS011;2877;48.238;11.160;2024-01-11T02:33:38;53.40;;;17.93;;
5704;SDS011;2877;48.238;11.160;2024-01-11T02:36:05;53.57;;;19.07;;
5704;SDS011;2877;48.238;11.160;2024-01-11T02:38:31;55.40;;;18.90;;
5704;SDS011;2877;48.238;11.160;2024-01-11T02:40:58;111.47;;;20.50;;
5704;SDS011;2877;48.238;11.160;2024-01-11T02:43:24;58.27;;;18.50;;
5704;SDS011;2877;48.238;11.160;2024-01-11T02:45:53;60.93;;;18.73;;
5704;SDS011;2877;48.238;11.160;2024-01-11T02:48:20;50.03;;;17.13;;
5704;SDS011;2877;48.238;11.160;2024-01-11T02:50:45;56.03;;;18.00;;
5704;SDS011;2877;48.238;11.160;2024-01-11T02:53:11;53.40;;;17.40;;
5704;SDS011;2877;48.238;11.160;2024-01-11T02:55:37;48.53;;;18.27;;
5704;SDS011;2877;48.238;11.160;2024-01-11T02:58:02;63.50;;;18.70;;
5704;SDS011;2877;48.238;11.160;2024-01-11T03:00:28;61.63;;;19.83;;
5704;SDS011;2877;48.238;11.160;2024-01-11T03:02:53;46.10;;;19.47;;
5704;SDS011;2877;48.238;11.160;2024-01-11T03:05:19;54.10;;;18.67;;
5704;SDS011;2877;48.238;11.160;2024-01-11T03:07:44;53.60;;;18.17;;
5704;SDS011;2877;48.238;11.160;2024-01-11T03:10:10;66.00;;;19.40;;
5704;SDS011;2877;48.238;11.160;2024-01-11T03:12:35;51.20;;;17.37;;
5704;SDS011;2877;48.238;11.160;2024-01-11T03:15:01;42.57;;;16.70;;
5704;SDS011;2877;48.238;11.160;2024-01-11T03:17:27;55.60;;;18.27;;
5704;SDS011;2877;48.238;11.160;2024-01-11T03:19:53;47.37;;;15.87;;
5704;SDS011;2877;48.238;11.160;2024-01-11T03:22:18;38.30;;;16.27;;
5704;SDS011;2877;48.238;11.160;2024-01-11T03:24:44;43.23;;;16.57;;
5704;SDS011;2877;48.238;11.160;2024-01-11T03:27:10;42.77;;;16.37;;
5704;SDS011;2877;48.238;11.160;2024-01-11T03:29:36;37.53;;;15.27;;
5704;SDS011;2877;48.238;11.160;2024-01-11T03:32:01;46.80;;;15.90;;
5704;SDS011;2877;48.238;11.160;2024-01-11T03:34:27;38.97;;;16.27;;
5704;SDS011;2877;48.238;11.160;2024-01-11T03:36:52;38.80;;;16.30;;
5704;SDS011;2877;48.238;11.160;2024-01-11T03:39:18;38.67;;;14.73;;
5704;SDS011;2877;48.238;11.160;2024-01-11T03:41:46;39.03;;;16.10;;
5704;SDS011;2877;48.238;11.160;2024-01-11T03:44:12;41.37;;;15.13;;
5704;SDS011;2877;48.238;11.160;2024-01-11T03:46:38;75.27;;;16.30;;
5704;SDS011;2877;48.238;11.160;2024-01-11T03:49:03;51.73;;;14.90;;
5704;SDS011;2877;48.238;11.160;2024-01-11T03:51:29;41.77;;;14.70;;
5704;SDS011;2877;48.238;11.160;2024-01-11T03:53:54;44.40;;;15.87;;
5704;SDS011;2877;48.238;11.160;2024-01-11T03:56:20;47.77;;;15.20;;
5704;SDS011;2877;48.238;11.160;2024-01-11T03:58:45;44.47;;;17.33;;
5704;SDS011;2877;48.238;11.160;2024-01-11T04:01:11;45.43;;;15.20;;
5704;SDS011;2877;48.238;11.160;2024-01-11T04:03:37;58.03;;;17.40;;
5704;SDS011;2877;48.238;11.160;2024-01-11T04:06:03;70.00;;;15.80;;
5704;SDS011;2877;48.238;11.160;2024-01-11T04:08:28;73.93;;;16.30;;
5704;SDS011;2877;48.238;11.160;2024-01-11T04:10:54;64.43;;;15.10;;
5704;SDS011;2877;48.238;11.160;2024-01-11T04:13:19;47.43;;;14.87;;
5704;SDS011;2877;48.238;11.160;2024-01-11T04:15:45;67.10;;;14.77;;
5704;SDS011;2877;48.238;11.160;2024-01-11T04:18:11;37.73;;;15.60;;
5704;SDS011;2877;48.238;11.160;2024-01-11T04:20:36;80.77;;;16.57;;
5704;SDS011;2877;48.238;11.160;2024-01-11T04:23:02;45.80;;;15.27;;
5704;SDS011;2877;48.238;11.160;2024-01-11T04:25:27;58.03;;;15.80;;
5704;SDS011;2877;48.238;11.160;2024-01-11T04:27:53;38.13;;;15.20;;
5704;SDS011;2877;48.238;11.160;2024-01-11T04:30:18;43.50;;;16.07;;
5704;SDS011;2877;48.238;11.160;2024-01-11T04:32:44;50.53;;;15.57;;
5704;SDS011;2877;48.238;11.160;2024-01-11T04:35:09;41.37;;;15.87;;
5704;SDS011;2877;48.238;11.160;2024-01-11T04:37:35;46.10;;;16.47;;
5704;SDS011;2877;48.238;11.160;2024-01-11T04:40:01;42.93;;;14.70;;
5704;SDS011;2877;48.238;11.160;2024-01-11T04:42:27;37.27;;;14.93;;
5704;SDS011;2877;48.238;11.160;2024-01-11T04:44:53;53.83;;;17.30;;
5704;SDS011;2877;48.238;11.160;2024-01-11T04:47:18;36.50;;;15.63;;
5704;SDS011;2877;48.238;11.160;2024-01-11T04:49:44;36.20;;;14.77;;
5704;SDS011;2877;48.238;11.160;2024-01-11T04:52:10;44.20;;;16.17;;
5704;SDS011;2877;48.238;11.160;2024-01-11T04:54:36;37.47;;;15.40;;
5704;SDS011;2877;48.238;11.160;2024-01-11T04:57:01;44.73;;;15.93;;
5704;SDS011;2877;48.238;11.160;2024-01-11T04:59:27;39.30;;;15.90;;
5704;SDS011;2877;48.238;11.160;2024-01-11T05:01:53;40.50;;;16.50;;
5704;SDS011;2877;48.238;11.160;2024-01-11T05:04:18;39.83;;;16.33;;
5704;SDS011;2877;48.238;11.160;2024-01-11T05:06:44;37.40;;;16.10;;
5704;SDS011;2877;48.238;11.160;2024-01-11T05:09:10;39.87;;;17.23;;
5704;SDS011;2877;48.238;11.160;2024-01-11T05:11:35;41.60;;;17.37;;
5704;SDS011;2877;48.238;11.160;2024-01-11T05:14:01;42.80;;;17.07;;
5704;SDS011;2877;48.238;11.160;2024-01-11T05:16:27;45.60;;;17.10;;
5704;SDS011;2877;48.238;11.160;2024-01-11T05:18:53;39.03;;;17.17;;
5704;SDS011;2877;48.238;11.160;2024-01-11T05:21:20;42.50;;;17.30;;
5704;SDS011;2877;48.238;11.160;2024-01-11T05:23:46;46.67;;;17.77;;
5704;SDS011;2877;48.238;11.160;2024-01-11T05:26:12;58.13;;;20.47;;
5704;SDS011;2877;48.238;11.160;2024-01-11T05:28:39;49.13;;;18.73;;
5704;SDS011;2877;48.238;11.160;2024-01-11T05:31:11;56.20;;;19.13;;
5704;SDS011;2877;48.238;11.160;2024-01-11T05:33:38;55.50;;;16.97;;
5704;SDS011;2877;48.238;11.160;2024-01-11T05:36:04;49.00;;;18.53;;
5704;SDS011;2877;48.238;11.160;2024-01-11T05:38:31;47.30;;;18.57;;
5704;SDS011;2877;48.238;11.160;2024-01-11T05:40:56;64.07;;;21.60;;
5704;SDS011;2877;48.238;11.160;2024-01-11T05:43:22;54.93;;;20.00;;
5704;SDS011;2877;48.238;11.160;2024-01-11T05:45:48;52.13;;;21.47;;
5704;SDS011;2877;48.238;11.160;2024-01-11T05:48:15;58.33;;;20.33;;
5704;SDS011;2877;48.238;11.160;2024-01-11T05:50:40;64.27;;;19.43;;
5704;SDS011;2877;48.238;11.160;2024-01-11T05:53:06;50.50;;;19.17;;
5704;SDS011;2877;48.238;11.160;2024-01-11T05:55:32;46.30;;;18.90;;
5704;SDS011;2877;48.238;11.160;2024-01-11T05:57:57;57.23;;;20.63;;
5704;SDS011;2877;48.238;11.160;2024-01-11T06:00:23;45.33;;;18.20;;
5704;SDS011;2877;48.238;11.160;2024-01-11T06:02:48;45.80;;;17.13;;
5704;SDS011;2877;48.238;11.160;2024-01-11T06:05:14;39.60;;;16.97;;
5704;SDS011;2877;48.238;11.160;2024-01-11T06:07:40;46.53;;;18.03;;
5704;SDS011;2877;48.238;11.160;2024-01-11T06:10:06;38.77;;;16.57;;
5704;SDS011;2877;48.238;11.160;2024-01-11T06:12:33;41.97;;;17.30;;
5704;SDS011;2877;48.238;11.160;2024-01-11T06:14:59;40.73;;;16.73;;
5704;SDS011;2877;48.238;11.160;2024-01-11T06:17:25;52.40;;;18.97;;
5704;SDS011;2877;48.238;11.160;2024-01-11T06:19:51;44.43;;;17.60;;
5704;SDS011;2877;48.238;11.160;2024-01-11T06:22:16;46.20;;;16.40;;
5704;SDS011;2877;48.238;11.160;2024-01-11T06:24:43;46.20;;;17.77;;
5704;SDS011;2877;48.238;11.160;2024-01-11T06:27:08;64.77;;;18.27;;
5704;SDS011;2877;48.238;11.160;2024-01-11T06:29:34;64.67;;;17.60;;
5704;SDS011;2877;48.238;11.160;2024-01-11T06:31:59;74.17;;;18.27;;
5704;SDS011;2877;48.238;11.160;2024-01-11T06:34:25;58.37;;;18.00;;
5704;SDS011;2877;48.238;11.160;2024-01-11T06:36:50;66.93;;;20.40;;
5704;SDS011;2877;48.238;11.160;2024-01-11T06:39:16;62.23;;;22.97;;
5704;SDS011;2877;48.238;11.160;2024-01-11T06:41:42;63.63;;;21.87;;
5704;SDS011;2877;48.238;11.160;2024-01-11T06:44:07;49.17;;;18.50;;
5704;SDS011;2877;48.238;11.160;2024-01-11T06:46:33;45.70;;;17.90;;
5704;SDS011;2877;48.238;11.160;2024-01-11T06:49:01;49.17;;;18.90;;
5704;SDS011;2877;48.238;11.160;2024-01-11T06:51:26;48.37;;;17.20;;
5704;SDS011;2877;48.238;11.160;2024-01-11T06:53:52;42.77;;;18.47;;
5704;SDS011;2877;48.238;11.160;2024-01-11T06:56:18;52.10;;;18.37;;
5704;SDS011;2877;48.238;11.160;2024-01-11T06:58:46;43.63;;;16.90;;
5704;SDS011;2877;48.238;11.160;2024-01-11T07:01:12;42.07;;;17.87;;
5704;SDS011;2877;48.238;11.160;2024-01-11T07:03:38;40.40;;;16.73;;
5704;SDS011;2877;48.238;11.160;2024-01-11T07:06:04;86.00;;;18.43;;
5704;SDS011;2877;48.238;11.160;2024-01-11T07:08:30;49.30;;;18.70;;
5704;SDS011;2877;48.238;11.160;2024-01-11T07:10:57;53.43;;;19.10;;
5704;SDS011;2877;48.238;11.160;2024-01-11T07:13:23;61.40;;;18.73;;
5704;SDS011;2877;48.238;11.160;2024-01-11T07:15:48;54.83;;;20.53;;
5704;SDS011;2877;48.238;11.160;2024-01-11T07:18:16;51.73;;;20.20;;
5704;SDS011;2877;48.238;11.160;2024-01-11T07:20:42;51.77;;;19.43;;
5704;SDS011;2877;48.238;11.160;2024-01-11T07:23:08;45.97;;;17.90;;
5704;SDS011;2877;48.238;11.160;2024-01-11T07:25:34;67.23;;;17.37;;
5704;SDS011;2877;48.238;11.160;2024-01-11T07:27:59;53.47;;;18.53;;
5704;SDS011;2877;48.238;11.160;2024-01-11T07:30:26;49.17;;;17.90;;
5704;SDS011;2877;48.238;11.160;2024-01-11T07:32:51;49.47;;;18.40;;
5704;SDS011;2877;48.238;11.160;2024-01-11T07:35:17;53.07;;;18.57;;
5704;SDS011;2877;48.238;11.160;2024-01-11T07:37:42;82.83;;;17.73;;
5704;SDS011;2877;48.238;11.160;2024-01-11T07:40:08;62.37;;;18.90;;
5704;SDS011;2877;48.238;11.160;2024-01-11T07:42:39;56.77;;;18.40;;
5704;SDS011;2877;48.238;11.160;2024-01-11T07:45:05;48.77;;;18.00;;
5704;SDS011;2877;48.238;11.160;2024-01-11T07:47:31;54.57;;;16.93;;
5704;SDS011;2877;48.238;11.160;2024-01-11T07:49:58;44.30;;;17.13;;
5704;SDS011;2877;48.238;11.160;2024-01-11T07:52:23;46.83;;;16.97;;
5704;SDS011;2877;48.238;11.160;2024-01-11T07:54:49;76.03;;;20.20;;
5704;SDS011;2877;48.238;11.160;2024-01-11T07:57:14;54.10;;;19.00;;
5704;SDS011;2877;48.238;11.160;2024-01-11T07:59:40;44.10;;;17.63;;
5704;SDS011;2877;48.238;11.160;2024-01-11T08:02:05;44.87;;;17.70;;
5704;SDS011;2877;48.238;11.160;2024-01-11T08:04:31;49.07;;;18.60;;
5704;SDS011;2877;48.238;11.160;2024-01-11T08:06:57;47.47;;;17.60;;
5704;SDS011;2877;48.238;11.160;2024-01-11T08:09:26;41.33;;;18.13;;
5704;SDS011;2877;48.238;11.160;2024-01-11T08:11:52;42.17;;;17.47;;
5704;SDS011;2877;48.238;11.160;2024-01-11T08:14:19;43.77;;;17.90;;
5704;SDS011;2877;48.238;11.160;2024-01-11T08:16:45;52.03;;;19.10;;
5704;SDS011;2877;48.238;11.160;2024-01-11T08:19:10;42.23;;;17.47;;
5704;SDS011;2877;48.238;11.160;2024-01-11T08:21:38;61.70;;;17.70;;
5704;SDS011;2877;48.238;11.160;2024-01-11T08:24:04;44.27;;;18.77;;
5704;SDS011;2877;48.238;11.160;2024-01-11T08:26:30;47.10;;;18.70;;
5704;SDS011;2877;48.238;11.160;2024-01-11T08:28:55;42.80;;;16.40;;
5704;SDS011;2877;48.238;11.160;2024-01-11T08:31:21;53.43;;;17.63;;
5704;SDS011;2877;48.238;11.160;2024-01-11T08:33:47;40.33;;;17.40;;
5704;SDS011;2877;48.238;11.160;2024-01-11T08:36:13;62.37;;;18.20;;
5704;SDS011;2877;48.238;11.160;2024-01-11T08:38:39;41.67;;;17.47;;
5704;SDS011;2877;48.238;11.160;2024-01-11T08:41:05;46.67;;;19.03;;
5704;SDS011;2877;48.238;11.160;2024-01-11T08:43:31;46.27;;;16.50;;
5704;SDS011;2877;48.238;11.160;2024-01-11T08:45:57;51.83;;;21.07;;
5704;SDS011;2877;48.238;11.160;2024-01-11T08:48:23;50.93;;;19.77;;
5704;SDS011;2877;48.238;11.160;2024-01-11T08:50:48;53.37;;;20.00;;
5704;SDS011;2877;48.238;11.160;2024-01-11T08:53:14;43.37;;;17.37;;
5704;SDS011;2877;48.238;11.160;2024-01-11T08:55:41;41.07;;;17.40;;
5704;SDS011;2877;48.238;11.160;2024-01-11T08:58:07;32.17;;;14.90;;
5704;SDS011;2877;48.238;11.160;2024-01-11T09:00:33;47.83;;;18.70;;
5704;SDS011;2877;48.238;11.160;2024-01-11T09:02:58;42.13;;;17.67;;
5704;SDS011;2877;48.238;11.160;2024-01-11T09:05:24;52.33;;;17.60;;
5704;SDS011;2877;48.238;11.160;2024-01-11T09:07:50;41.50;;;18.20;;
5704;SDS011;2877;48.238;11.160;2024-01-11T09:10:15;51.97;;;19.57;;
5704;SDS011;2877;48.238;11.160;2024-01-11T09:12:41;43.23;;;16.93;;
5704;SDS011;2877;48.238;11.160;2024-01-11T09:15:06;41.20;;;16.93;;
5704;SDS011;2877;48.238;11.160;2024-01-11T09:17:32;43.50;;;17.27;;
5704;SDS011;2877;48.238;11.160;2024-01-11T09:19:58;46.07;;;17.17;;
5704;SDS011;2877;48.238;11.160;2024-01-11T09:22:23;41.93;;;18.87;;
5704;SDS011;2877;48.238;11.160;2024-01-11T09:24:50;37.90;;;18.23;;
5704;SDS011;2877;48.238;11.160;2024-01-11T09:27:15;39.00;;;16.80;;
5704;SDS011;2877;48.238;11.160;2024-01-11T09:29:44;41.97;;;18.30;;
5704;SDS011;2877;48.238;11.160;2024-01-11T09:32:11;43.40;;;17.63;;
5704;SDS011;2877;48.238;11.160;2024-01-11T09:34:39;46.00;;;18.83;;
5704;SDS011;2877;48.238;11.160;2024-01-11T09:37:05;45.63;;;19.60;;
5704;SDS011;2877;48.238;11.160;2024-01-11T09:39:30;57.00;;;22.73;;
5704;SDS011;2877;48.238;11.160;2024-01-11T09:42:08;49.03;;;20.13;;
5704;SDS011;2877;48.238;11.160;2024-01-11T09:44:34;74.10;;;20.80;;
5704;SDS011;2877;48.238;11.160;2024-01-11T09:47:02;48.37;;;18.80;;
5704;SDS011;2877;48.238;11.160;2024-01-11T09:49:29;50.33;;;20.03;;
5704;SDS011;2877;48.238;11.160;2024-01-11T09:51:57;56.40;;;20.63;;
5704;SDS011;2877;48.238;11.160;2024-01-11T09:54:23;51.10;;;20.47;;
5704;SDS011;2877;48.238;11.160;2024-01-11T09:56:51;47.80;;;19.70;;
5704;SDS011;2877;48.238;11.160;2024-01-11T09:59:18;60.90;;;21.33;;
5704;SDS011;2877;48.238;11.160;2024-01-11T10:01:45;51.23;;;20.60;;
5704;SDS011;2877;48.238;11.160;2024-01-11T10:04:11;64.47;;;20.60;;
5704;SDS011;2877;48.238;11.160;2024-01-11T10:06:38;42.87;;;19.43;;
5704;SDS011;2877;48.238;11.160;2024-01-11T10:09:03;45.20;;;20.23;;
5704;SDS011;2877;48.238;11.160;2024-01-11T10:11:29;49.40;;;19.13;;
5704;SDS011;2877;48.238;11.160;2024-01-11T10:13:58;41.03;;;18.30;;
5704;SDS011;2877;48.238;11.160;2024-01-11T10:16:25;39.13;;;18.80;;
5704;SDS011;2877;48.238;11.160;2024-01-11T10:18:53;47.10;;;19.90;;
5704;SDS011;2877;48.238;11.160;2024-01-11T10:21:19;43.63;;;18.23;;
5704;SDS011;2877;48.238;11.160;2024-01-11T10:23:45;46.10;;;20.03;;
5704;SDS011;2877;48.238;11.160;2024-01-11T10:26:10;44.60;;;20.30;;
5704;SDS011;2877;48.238;11.160;2024-01-11T10:28:36;41.50;;;19.20;;
5704;SDS011;2877;48.238;11.160;2024-01-11T10:31:03;42.30;;;19.10;;
5704;SDS011;2877;48.238;11.160;2024-01-11T10:33:33;40.40;;;19.40;;
5704;SDS011;2877;48.238;11.160;2024-01-11T10:35:58;41.00;;;19.60;;
5704;SDS011;2877;48.238;11.160;2024-01-11T10:38:25;41.57;;;19.23;;
5704;SDS011;2877;48.238;11.160;2024-01-11T10:40:54;42.90;;;18.93;;
5704;SDS011;2877;48.238;11.160;2024-01-11T10:43:21;45.17;;;18.37;;
5704;SDS011;2877;48.238;11.160;2024-01-11T10:45:50;41.93;;;18.77;;
5704;SDS011;2877;48.238;11.160;2024-01-11T10:48:18;49.63;;;21.60;;
5704;SDS011;2877;48.238;11.160;2024-01-11T10:50:49;44.53;;;18.73;;
5704;SDS011;2877;48.238;11.160;2024-01-11T10:53:34;45.47;;;18.83;;
5704;SDS011;2877;48.238;11.160;2024-01-11T10:56:10;44.33;;;17.77;;
5704;SDS011;2877;48.238;11.160;2024-01-11T10:58:41;51.77;;;22.80;;
5704;SDS011;2877;48.238;11.160;2024-01-11T11:01:08;38.50;;;18.20;;
5704;SDS011;2877;48.238;11.160;2024-01-11T11:03:36;47.87;;;19.03;;
5704;SDS011;2877;48.238;11.160;2024-01-11T11:06:02;40.87;;;17.83;;
5704;SDS011;2877;48.238;11.160;2024-01-11T11:08:30;45.30;;;19.20;;
5704;SDS011;2877;48.238;11.160;2024-01-11T11:10:57;38.93;;;16.90;;
5704;SDS011;2877;48.238;11.160;2024-01-11T11:13:23;47.43;;;17.63;;
5704;SDS011;2877;48.238;11.160;2024-01-11T11:15:49;36.80;;;18.07;;
5704;SDS011;2877;48.238;11.160;2024-01-11T11:18:16;49.63;;;19.23;;
5704;SDS011;2877;48.238;11.160;2024-01-11T11:20:43;41.80;;;18.97;;
5704;SDS011;2877;48.238;11.160;2024-01-11T11:23:10;36.33;;;17.00;;
5704;SDS011;2877;48.238;11.160;2024-01-11T11:25:37;41.20;;;18.10;;
5704;SDS011;2877;48.238;11.160;2024-01-11T11:28:05;45.97;;;16.80;;
5704;SDS011;2877;48.238;11.160;2024-01-11T11:30:32;44.50;;;20.10;;
5704;SDS011;2877;48.238;11.160;2024-01-11T11:32:58;36.60;;;17.57;;
5704;SDS011;2877;48.238;11.160;2024-01-11T11:35:35;44.40;;;19.87;;
5704;SDS011;2877;48.238;11.160;2024-01-11T11:38:01;42.20;;;18.40;;
5704;SDS011;2877;48.238;11.160;2024-01-11T11:40:36;47.30;;;19.97;;
5704;SDS011;2877;48.238;11.160;2024-01-11T11:43:04;47.03;;;20.90;;
5704;SDS011;2877;48.238;11.160;2024-01-11T11:45:30;47.47;;;19.83;;
5704;SDS011;2877;48.238;11.160;2024-01-11T11:47:57;47.70;;;20.20;;
5704;SDS011;2877;48.238;11.160;2024-01-11T11:50:23;48.10;;;20.50;;
5704;SDS011;2877;48.238;11.160;2024-01-11T11:52:53;42.27;;;20.20;;
5704;SDS011;2877;48.238;11.160;2024-01-11T11:55:25;43.37;;;19.27;;
5704;SDS011;2877;48.238;11.160;2024-01-11T11:57:51;50.27;;;19.77;;
5704;SDS011;2877;48.238;11.160;2024-01-11T12:00:20;43.70;;;20.07;;
5704;SDS011;2877;48.238;11.160;2024-01-11T12:02:46;46.73;;;19.97;;
5704;SDS011;2877;48.238;11.160;2024-01-11T12:05:13;46.70;;;20.30;;
5704;SDS011;2877;48.238;11.160;2024-01-11T12:07:39;41.90;;;20.53;;
5704;SDS011;2877;48.238;11.160;2024-01-11T12:10:05;51.83;;;20.00;;
5704;SDS011;2877;48.238;11.160;2024-01-11T12:12:31;40.97;;;17.90;;
5704;SDS011;2877;48.238;11.160;2024-01-11T12:14:58;37.20;;;18.20;;
5704;SDS011;2877;48.238;11.160;2024-01-11T12:17:24;43.00;;;19.63;;
5704;SDS011;2877;48.238;11.160;2024-01-11T12:19:51;37.73;;;19.00;;
5704;SDS011;2877;48.238;11.160;2024-01-11T12:22:16;41.70;;;18.00;;
5704;SDS011;2877;48.238;11.160;2024-01-11T12:24:42;42.93;;;18.47;;
5704;SDS011;2877;48.238;11.160;2024-01-11T12:27:08;49.70;;;22.13;;
5704;SDS011;2877;48.238;11.160;2024-01-11T12:29:33;42.20;;;19.17;;
5704;SDS011;2877;48.238;11.160;2024-01-11T12:31:59;48.00;;;18.70;;
5704;SDS011;2877;48.238;11.160;2024-01-11T12:34:25;43.40;;;19.97;;
5704;SDS011;2877;48.238;11.160;2024-01-11T12:36:52;43.37;;;19.37;;
5704;SDS011;2877;48.238;11.160;2024-01-11T12:39:19;40.93;;;18.33;;
5704;SDS011;2877;48.238;11.160;2024-01-11T12:41:47;37.27;;;18.57;;
5704;SDS011;2877;48.238;11.160;2024-01-11T12:44:19;45.23;;;20.63;;
5704;SDS011;2877;48.238;11.160;2024-01-11T12:46:47;42.40;;;20.77;;
5704;SDS011;2877;48.238;11.160;2024-01-11T12:49:13;46.03;;;21.03;;
5704;SDS011;2877;48.238;11.160;2024-01-11T12:51:40;43.73;;;19.40;;
5704;SDS011;2877;48.238;11.160;2024-01-11T12:54:08;39.10;;;18.63;;
5704;SDS011;2877;48.238;11.160;2024-01-11T12:56:42;41.20;;;18.87;;
5704;SDS011;2877;48.238;11.160;2024-01-11T12:59:09;42.27;;;20.23;;
5704;SDS011;2877;48.238;11.160;2024-01-11T13:01:37;44.73;;;21.30;;
5704;SDS011;2877;48.238;11.160;2024-01-11T13:04:04;39.47;;;19.80;;
5704;SDS011;2877;48.238;11.160;2024-01-11T13:06:30;43.73;;;21.17;;
5704;SDS011;2877;48.238;11.160;2024-01-11T13:08:56;43.90;;;19.63;;
5704;SDS011;2877;48.238;11.160;2024-01-11T13:11:22;44.30;;;19.67;;
5704;SDS011;2877;48.238;11.160;2024-01-11T13:13:49;38.60;;;19.40;;
5704;SDS011;2877;48.238;11.160;2024-01-11T13:16:16;38.43;;;18.90;;
5704;SDS011;2877;48.238;11.160;2024-01-11T13:18:43;40.20;;;18.03;;
5704;SDS011;2877;48.238;11.160;2024-01-11T13:21:09;41.77;;;18.70;;
5704;SDS011;2877;48.238;11.160;2024-01-11T13:23:35;44.60;;;18.13;;
5704;SDS011;2877;48.238;11.160;2024-01-11T13:26:02;39.70;;;18.47;;
5704;SDS011;2877;48.238;11.160;2024-01-11T13:28:29;38.53;;;18.57;;
5704;SDS011;2877;48.238;11.160;2024-01-11T13:30:55;41.10;;;20.10;;
5704;SDS011;2877;48.238;11.160;2024-01-11T13:33:20;43.30;;;19.20;;
5704;SDS011;2877;48.238;11.160;2024-01-11T13:35:48;38.43;;;19.30;;
5704;SDS011;2877;48.238;11.160;2024-01-11T13:38:14;44.90;;;19.20;;
5704;SDS011;2877;48.238;11.160;2024-01-11T13:40:40;39.60;;;18.17;;
5704;SDS011;2877;48.238;11.160;2024-01-11T13:43:07;40.77;;;19.47;;
5704;SDS011;2877;48.238;11.160;2024-01-11T13:45:32;41.83;;;18.10;;
5704;SDS011;2877;48.238;11.160;2024-01-11T13:48:01;42.10;;;17.90;;
5704;SDS011;2877;48.238;11.160;2024-01-11T13:50:27;45.03;;;19.47;;
5704;SDS011;2877;48.238;11.160;2024-01-11T13:52:53;42.20;;;19.10;;
5704;SDS011;2877;48.238;11.160;2024-01-11T13:55:19;45.40;;;20.13;;
5704;SDS011;2877;48.238;11.160;2024-01-11T13:57:48;38.53;;;18.90;;
5704;SDS011;2877;48.238;11.160;2024-01-11T14:00:15;49.53;;;23.00;;
5704;SDS011;2877;48.238;11.160;2024-01-11T14:02:43;41.50;;;18.90;;
5704;SDS011;2877;48.238;11.160;2024-01-11T14:05:10;38.93;;;18.67;;
5704;SDS011;2877;48.238;11.160;2024-01-11T14:07:38;35.93;;;17.30;;
5704;SDS011;2877;48.238;11.160;2024-01-11T14:10:05;41.47;;;20.03;;
5704;SDS011;2877;48.238;11.160;2024-01-11T14:12:33;40.07;;;17.27;;
5704;SDS011;2877;48.238;11.160;2024-01-11T14:14:59;40.87;;;18.53;;
5704;SDS011;2877;48.238;11.160;2024-01-11T14:17:25;43.00;;;18.93;;
5704;SDS011;2877;48.238;11.160;2024-01-11T14:19:51;47.43;;;20.17;;
5704;SDS011;2877;48.238;11.160;2024-01-11T14:22:16;44.20;;;20.70;;
5704;SDS011;2877;48.238;11.160;2024-01-11T14:24:42;45.57;;;19.50;;
5704;SDS011;2877;48.238;11.160;2024-01-11T14:27:08;41.77;;;20.50;;